Archival Weather

Bob Hope

Burbank, California (KBUR)

Report from: Monday, January 29, 2024 6:53 AM PST
Current time: Friday, June 14, 2024 4:50 AM PDT

Current weather – Weather history – Daily summaries
Weather forecast

Temperature10.0°C (50.0°F)
Dew point3.9°C (39.0°F)
Winds Calm
Visibility10 mi. (16.1 km)
Clouds Sky clear
Altimeter30.14 in.Hg (1021 mB)
Relative humidity66 %
Density altitude-697 ft. (-212 m)
Sea-level pressure102.0 kPa (1020 mB, 30.11 in.Hg)
Remarks Automated weather observing station with precipitation discriminator
Pressure rising more quickly
Flight conditions Visual Meteorological Conditions
Raw dataKBUR 291453Z 00000KT 10SM CLR 10/04 A3014 RMK AO2 SLP197 T01000039 53003
An error has occurred. This application may no longer respond until reloaded. Reload 🗙